sensor_id;sensor_type;location;lat;lon;timestamp;P1;durP1;ratioP1;P2;durP2;ratioP2
3979;SDS011;2004;52.452;13.120;2022-12-10T00:03:32;27.10;;;13.20;;
3979;SDS011;2004;52.452;13.120;2022-12-10T00:11:23;26.33;;;13.73;;
3979;SDS011;2004;52.452;13.120;2022-12-10T00:19:14;23.43;;;12.53;;
3979;SDS011;2004;52.452;13.120;2022-12-10T00:27:04;23.73;;;13.37;;
3979;SDS011;2004;52.452;13.120;2022-12-10T00:34:55;22.97;;;12.90;;
3979;SDS011;2004;52.452;13.120;2022-12-10T00:42:46;29.50;;;14.10;;
3979;SDS011;2004;52.452;13.120;2022-12-10T00:50:36;25.83;;;15.10;;
3979;SDS011;2004;52.452;13.120;2022-12-10T00:58:28;28.70;;;14.17;;
3979;SDS011;2004;52.452;13.120;2022-12-10T01:06:24;22.70;;;12.57;;
3979;SDS011;2004;52.452;13.120;2022-12-10T01:14:18;29.50;;;15.40;;
3979;SDS011;2004;52.452;13.120;2022-12-10T01:22:11;26.13;;;14.20;;
3979;SDS011;2004;52.452;13.120;2022-12-10T01:30:02;23.80;;;13.17;;
3979;SDS011;2004;52.452;13.120;2022-12-10T01:37:53;23.43;;;13.20;;
3979;SDS011;2004;52.452;13.120;2022-12-10T01:45:43;33.57;;;15.17;;
3979;SDS011;2004;52.452;13.120;2022-12-10T01:53:34;26.77;;;13.90;;
3979;SDS011;2004;52.452;13.120;2022-12-10T02:01:32;23.50;;;13.70;;
3979;SDS011;2004;52.452;13.120;2022-12-10T02:09:52;24.53;;;12.40;;
3979;SDS011;2004;52.452;13.120;2022-12-10T02:17:57;21.40;;;12.27;;
3979;SDS011;2004;52.452;13.120;2022-12-10T02:25:57;25.27;;;13.43;;
3979;SDS011;2004;52.452;13.120;2022-12-10T02:33:57;24.27;;;11.97;;
3979;SDS011;2004;52.452;13.120;2022-12-10T02:41:51;22.17;;;12.67;;
3979;SDS011;2004;52.452;13.120;2022-12-10T02:49:44;22.00;;;12.03;;
3979;SDS011;2004;52.452;13.120;2022-12-10T02:57:54;20.50;;;11.47;;
3979;SDS011;2004;52.452;13.120;2022-12-10T03:06:06;21.57;;;12.37;;
3979;SDS011;2004;52.452;13.120;2022-12-10T03:22:06;21.67;;;11.60;;
3979;SDS011;2004;52.452;13.120;2022-12-10T03:29:59;21.50;;;12.37;;
3979;SDS011;2004;52.452;13.120;2022-12-10T03:37:50;22.37;;;11.33;;
3979;SDS011;2004;52.452;13.120;2022-12-10T03:45:41;23.80;;;12.17;;
3979;SDS011;2004;52.452;13.120;2022-12-10T03:53:32;19.63;;;11.47;;
3979;SDS011;2004;52.452;13.120;2022-12-10T04:01:22;20.97;;;12.20;;
3979;SDS011;2004;52.452;13.120;2022-12-10T04:09:13;22.67;;;12.40;;
3979;SDS011;2004;52.452;13.120;2022-12-10T04:17:05;25.60;;;12.13;;
3979;SDS011;2004;52.452;13.120;2022-12-10T04:24:55;22.10;;;12.63;;
3979;SDS011;2004;52.452;13.120;2022-12-10T04:33:05;25.03;;;11.63;;
3979;SDS011;2004;52.452;13.120;2022-12-10T04:40:55;23.03;;;12.33;;
3979;SDS011;2004;52.452;13.120;2022-12-10T04:48:46;27.17;;;13.53;;
3979;SDS011;2004;52.452;13.120;2022-12-10T04:56:36;21.77;;;11.83;;
3979;SDS011;2004;52.452;13.120;2022-12-10T05:04:27;22.97;;;13.67;;
3979;SDS011;2004;52.452;13.120;2022-12-10T05:12:17;24.63;;;12.30;;
3979;SDS011;2004;52.452;13.120;2022-12-10T05:20:08;21.20;;;11.83;;
3979;SDS011;2004;52.452;13.120;2022-12-10T05:27:59;22.77;;;13.03;;
3979;SDS011;2004;52.452;13.120;2022-12-10T05:35:53;23.60;;;13.03;;
3979;SDS011;2004;52.452;13.120;2022-12-10T05:43:45;28.90;;;15.70;;
3979;SDS011;2004;52.452;13.120;2022-12-10T05:51:37;25.57;;;13.83;;
3979;SDS011;2004;52.452;13.120;2022-12-10T05:59:28;26.00;;;14.27;;
3979;SDS011;2004;52.452;13.120;2022-12-10T06:07:18;24.80;;;14.17;;
3979;SDS011;2004;52.452;13.120;2022-12-10T06:15:09;22.47;;;12.90;;
3979;SDS011;2004;52.452;13.120;2022-12-10T06:22:59;25.50;;;14.60;;
3979;SDS011;2004;52.452;13.120;2022-12-10T06:30:50;30.00;;;14.57;;
3979;SDS011;2004;52.452;13.120;2022-12-10T06:38:40;23.50;;;13.57;;
3979;SDS011;2004;52.452;13.120;2022-12-10T06:46:31;26.67;;;13.97;;
3979;SDS011;2004;52.452;13.120;2022-12-10T06:54:22;19.73;;;12.03;;
3979;SDS011;2004;52.452;13.120;2022-12-10T07:02:12;23.70;;;12.60;;
3979;SDS011;2004;52.452;13.120;2022-12-10T07:10:03;25.60;;;13.50;;
3979;SDS011;2004;52.452;13.120;2022-12-10T07:17:54;24.80;;;13.93;;
3979;SDS011;2004;52.452;13.120;2022-12-10T07:25:45;23.70;;;14.30;;
3979;SDS011;2004;52.452;13.120;2022-12-10T07:33:35;22.80;;;12.53;;
3979;SDS011;2004;52.452;13.120;2022-12-10T07:41:26;22.53;;;12.30;;
3979;SDS011;2004;52.452;13.120;2022-12-10T07:49:17;27.50;;;14.77;;
3979;SDS011;2004;52.452;13.120;2022-12-10T07:57:08;24.00;;;13.17;;
3979;SDS011;2004;52.452;13.120;2022-12-10T08:04:59;22.33;;;12.53;;
3979;SDS011;2004;52.452;13.120;2022-12-10T08:12:49;22.43;;;13.77;;
3979;SDS011;2004;52.452;13.120;2022-12-10T08:20:40;22.47;;;13.30;;
3979;SDS011;2004;52.452;13.120;2022-12-10T08:28:30;20.10;;;12.33;;
3979;SDS011;2004;52.452;13.120;2022-12-10T08:36:21;22.37;;;12.23;;
3979;SDS011;2004;52.452;13.120;2022-12-10T08:44:12;16.27;;;10.90;;
3979;SDS011;2004;52.452;13.120;2022-12-10T08:52:03;21.30;;;12.57;;
3979;SDS011;2004;52.452;13.120;2022-12-10T08:59:54;29.03;;;12.97;;
3979;SDS011;2004;52.452;13.120;2022-12-10T09:07:44;18.33;;;12.07;;
3979;SDS011;2004;52.452;13.120;2022-12-10T09:15:34;20.80;;;13.03;;
3979;SDS011;2004;52.452;13.120;2022-12-10T09:23:25;17.60;;;11.93;;
3979;SDS011;2004;52.452;13.120;2022-12-10T09:31:16;16.87;;;11.70;;
3979;SDS011;2004;52.452;13.120;2022-12-10T09:39:08;19.23;;;11.50;;
3979;SDS011;2004;52.452;13.120;2022-12-10T09:47:00;19.20;;;11.50;;
3979;SDS011;2004;52.452;13.120;2022-12-10T09:54:54;18.30;;;11.20;;
3979;SDS011;2004;52.452;13.120;2022-12-10T10:02:49;16.37;;;10.80;;
3979;SDS011;2004;52.452;13.120;2022-12-10T10:10:41;18.73;;;12.03;;
3979;SDS011;2004;52.452;13.120;2022-12-10T10:26:25;19.67;;;11.77;;
3979;SDS011;2004;52.452;13.120;2022-12-10T10:34:18;21.83;;;11.40;;
3979;SDS011;2004;52.452;13.120;2022-12-10T10:42:10;18.93;;;10.70;;
3979;SDS011;2004;52.452;13.120;2022-12-10T10:50:01;19.27;;;11.80;;
3979;SDS011;2004;52.452;13.120;2022-12-10T10:57:54;15.93;;;10.47;;
3979;SDS011;2004;52.452;13.120;2022-12-10T11:05:46;18.13;;;10.83;;
3979;SDS011;2004;52.452;13.120;2022-12-10T11:13:38;16.13;;;10.83;;
3979;SDS011;2004;52.452;13.120;2022-12-10T11:21:30;22.50;;;12.13;;
3979;SDS011;2004;52.452;13.120;2022-12-10T11:37:33;19.33;;;12.50;;
3979;SDS011;2004;52.452;13.120;2022-12-10T11:45:47;16.67;;;10.90;;
3979;SDS011;2004;52.452;13.120;2022-12-10T12:19:29;19.30;;;12.80;;
3979;SDS011;2004;52.452;13.120;2022-12-10T12:35:33;18.33;;;12.20;;
3979;SDS011;2004;52.452;13.120;2022-12-10T12:51:29;22.87;;;14.23;;
3979;SDS011;2004;52.452;13.120;2022-12-10T12:59:35;18.30;;;11.60;;
3979;SDS011;2004;52.452;13.120;2022-12-10T13:48:43;22.03;;;12.00;;
3979;SDS011;2004;52.452;13.120;2022-12-10T13:56:50;23.43;;;13.70;;
3979;SDS011;2004;52.452;13.120;2022-12-10T14:05:12;25.33;;;14.20;;
3979;SDS011;2004;52.452;13.120;2022-12-10T14:13:20;23.67;;;13.37;;
3979;SDS011;2004;52.452;13.120;2022-12-10T14:21:15;23.27;;;13.87;;
3979;SDS011;2004;52.452;13.120;2022-12-10T14:36:58;25.07;;;14.73;;
3979;SDS011;2004;52.452;13.120;2022-12-10T14:44:57;21.23;;;13.10;;
3979;SDS011;2004;52.452;13.120;2022-12-10T14:52:55;21.80;;;12.83;;
3979;SDS011;2004;52.452;13.120;2022-12-10T15:00:45;24.37;;;13.67;;
3979;SDS011;2004;52.452;13.120;2022-12-10T15:08:36;23.87;;;13.20;;
3979;SDS011;2004;52.452;13.120;2022-12-10T15:16:28;21.60;;;12.77;;
3979;SDS011;2004;52.452;13.120;2022-12-10T15:24:38;24.83;;;12.63;;
3979;SDS011;2004;52.452;13.120;2022-12-10T15:32:32;20.90;;;11.73;;
3979;SDS011;2004;52.452;13.120;2022-12-10T15:40:24;28.10;;;12.83;;
3979;SDS011;2004;52.452;13.120;2022-12-10T15:48:19;24.23;;;12.13;;
3979;SDS011;2004;52.452;13.120;2022-12-10T15:56:10;20.03;;;11.37;;
3979;SDS011;2004;52.452;13.120;2022-12-10T16:04:01;17.80;;;9.30;;
3979;SDS011;2004;52.452;13.120;2022-12-10T16:11:51;17.57;;;10.73;;
3979;SDS011;2004;52.452;13.120;2022-12-10T16:19:42;19.17;;;12.13;;
3979;SDS011;2004;52.452;13.120;2022-12-10T16:27:33;19.10;;;12.40;;
3979;SDS011;2004;52.452;13.120;2022-12-10T16:35:26;19.23;;;12.63;;
3979;SDS011;2004;52.452;13.120;2022-12-10T16:43:18;19.93;;;12.70;;
3979;SDS011;2004;52.452;13.120;2022-12-10T16:51:12;19.90;;;12.30;;
3979;SDS011;2004;52.452;13.120;2022-12-10T16:59:08;19.17;;;11.00;;
3979;SDS011;2004;52.452;13.120;2022-12-10T17:07:00;16.33;;;10.37;;
3979;SDS011;2004;52.452;13.120;2022-12-10T17:14:50;21.57;;;12.77;;
3979;SDS011;2004;52.452;13.120;2022-12-10T17:22:41;21.77;;;11.53;;
3979;SDS011;2004;52.452;13.120;2022-12-10T17:30:31;16.83;;;10.53;;
3979;SDS011;2004;52.452;13.120;2022-12-10T17:38:23;20.13;;;12.60;;
3979;SDS011;2004;52.452;13.120;2022-12-10T17:46:15;19.80;;;11.90;;
3979;SDS011;2004;52.452;13.120;2022-12-10T17:54:11;22.33;;;11.77;;
3979;SDS011;2004;52.452;13.120;2022-12-10T18:02:02;18.77;;;11.17;;
3979;SDS011;2004;52.452;13.120;2022-12-10T18:09:53;21.00;;;12.33;;
3979;SDS011;2004;52.452;13.120;2022-12-10T18:17:43;29.27;;;13.60;;
3979;SDS011;2004;52.452;13.120;2022-12-10T18:25:35;42.63;;;18.33;;
3979;SDS011;2004;52.452;13.120;2022-12-10T18:33:26;23.00;;;12.50;;
3979;SDS011;2004;52.452;13.120;2022-12-10T18:41:17;19.17;;;11.27;;
3979;SDS011;2004;52.452;13.120;2022-12-10T18:49:11;33.53;;;14.67;;
3979;SDS011;2004;52.452;13.120;2022-12-10T18:57:03;22.53;;;11.37;;
3979;SDS011;2004;52.452;13.120;2022-12-10T19:04:53;21.80;;;12.03;;
3979;SDS011;2004;52.452;13.120;2022-12-10T19:12:44;15.40;;;10.80;;
3979;SDS011;2004;52.452;13.120;2022-12-10T19:20:36;15.73;;;9.10;;
3979;SDS011;2004;52.452;13.120;2022-12-10T19:28:26;16.57;;;9.23;;
3979;SDS011;2004;52.452;13.120;2022-12-10T19:36:22;15.13;;;10.67;;
3979;SDS011;2004;52.452;13.120;2022-12-10T19:44:14;11.73;;;7.90;;
3979;SDS011;2004;52.452;13.120;2022-12-10T19:52:05;10.87;;;7.37;;
3979;SDS011;2004;52.452;13.120;2022-12-10T19:59:55;14.43;;;7.97;;
3979;SDS011;2004;52.452;13.120;2022-12-10T20:07:46;13.13;;;8.50;;
3979;SDS011;2004;52.452;13.120;2022-12-10T20:15:37;12.63;;;7.43;;
3979;SDS011;2004;52.452;13.120;2022-12-10T20:23:28;11.53;;;7.80;;
3979;SDS011;2004;52.452;13.120;2022-12-10T20:31:18;16.20;;;9.00;;
3979;SDS011;2004;52.452;13.120;2022-12-10T20:39:14;20.33;;;11.17;;
3979;SDS011;2004;52.452;13.120;2022-12-10T20:47:10;17.70;;;9.97;;
3979;SDS011;2004;52.452;13.120;2022-12-10T20:55:00;14.43;;;8.27;;
3979;SDS011;2004;52.452;13.120;2022-12-10T21:02:52;19.40;;;10.60;;
3979;SDS011;2004;52.452;13.120;2022-12-10T21:10:43;16.60;;;9.30;;
3979;SDS011;2004;52.452;13.120;2022-12-10T21:18:44;19.20;;;9.90;;
3979;SDS011;2004;52.452;13.120;2022-12-10T21:26:37;16.60;;;10.17;;
3979;SDS011;2004;52.452;13.120;2022-12-10T21:34:27;20.30;;;8.87;;
3979;SDS011;2004;52.452;13.120;2022-12-10T21:42:18;13.47;;;8.20;;
3979;SDS011;2004;52.452;13.120;2022-12-10T21:50:27;12.63;;;8.57;;
3979;SDS011;2004;52.452;13.120;2022-12-10T21:58:18;15.03;;;9.10;;
3979;SDS011;2004;52.452;13.120;2022-12-10T22:06:09;14.40;;;9.20;;
3979;SDS011;2004;52.452;13.120;2022-12-10T22:14:14;15.40;;;9.70;;
3979;SDS011;2004;52.452;13.120;2022-12-10T22:22:05;17.27;;;10.17;;
3979;SDS011;2004;52.452;13.120;2022-12-10T22:29:55;17.73;;;8.50;;
3979;SDS011;2004;52.452;13.120;2022-12-10T22:37:49;12.67;;;8.20;;
3979;SDS011;2004;52.452;13.120;2022-12-10T22:45:41;14.27;;;9.50;;
3979;SDS011;2004;52.452;13.120;2022-12-10T22:53:32;17.20;;;9.53;;
3979;SDS011;2004;52.452;13.120;2022-12-10T23:01:24;19.23;;;11.40;;
3979;SDS011;2004;52.452;13.120;2022-12-10T23:09:16;16.23;;;9.77;;
3979;SDS011;2004;52.452;13.120;2022-12-10T23:17:06;18.03;;;9.70;;
3979;SDS011;2004;52.452;13.120;2022-12-10T23:24:57;24.37;;;12.03;;
3979;SDS011;2004;52.452;13.120;2022-12-10T23:32:47;15.33;;;10.43;;
3979;SDS011;2004;52.452;13.120;2022-12-10T23:40:39;19.33;;;10.70;;
3979;SDS011;2004;52.452;13.120;2022-12-10T23:48:30;18.87;;;11.73;;
3979;SDS011;2004;52.452;13.120;2022-12-10T23:56:21;23.07;;;11.67;;
